createdAt,value
2022-12-08T00:01:44.699Z,99701.63
2022-12-08T00:04:13.316Z,99698.97
2022-12-08T00:07:00.890Z,99685.13
2022-12-08T00:09:38.240Z,99683.41
2022-12-08T00:12:10.511Z,99679.81
2022-12-08T00:14:42.407Z,99676.28
2022-12-08T00:17:12.188Z,99671.09
2022-12-08T00:19:41.689Z,99662.44
2022-12-08T00:22:11.730Z,99670.13
2022-12-08T00:24:42.170Z,99668.41
2022-12-08T00:27:14.347Z,99660.59
2022-12-08T00:29:44.415Z,99655.25
2022-12-08T00:32:13.309Z,99652.66
2022-12-08T00:34:41.701Z,99656.09
2022-12-08T00:37:10.135Z,99648.31
2022-12-08T00:39:38.597Z,99647.34
2022-12-08T00:42:13.075Z,99648.97
2022-12-08T00:44:45.148Z,99644.63
2022-12-08T00:47:14.487Z,99636.78
2022-12-08T00:49:43.394Z,99650.66
2022-12-08T00:52:12.632Z,99644.50
2022-12-08T00:54:41.012Z,99639.16
2022-12-08T00:57:09.455Z,99639.16
2022-12-08T00:59:38.983Z,99642.59
2022-12-08T01:02:09.274Z,99637.41
2022-12-08T01:04:37.779Z,99634.81
2022-12-08T01:07:06.219Z,99637.41
2022-12-08T01:09:34.709Z,99632.22
2022-12-08T01:12:03.138Z,99636.53
2022-12-08T01:14:31.467Z,99635.66
2022-12-08T01:16:59.967Z,99628.69
2022-12-08T01:19:30.952Z,99626.91
2022-12-08T01:21:59.399Z,99632.97
2022-12-08T01:24:27.759Z,99631.22
2022-12-08T01:26:56.076Z,99630.31
2022-12-08T01:29:24.420Z,99631.22
2022-12-08T01:31:52.775Z,99623.50
2022-12-08T01:34:21.227Z,99613.13
2022-12-08T01:36:50.913Z,99626.97
2022-12-08T01:39:20.798Z,99618.41
2022-12-08T01:41:49.205Z,99624.34
2022-12-08T01:44:52.264Z,99626.91
2022-12-08T01:47:20.817Z,99615.69
2022-12-08T01:49:49.581Z,99620.88
2022-12-08T01:52:23.297Z,99619.06
2022-12-08T01:54:57.160Z,99608.78
2022-12-08T01:57:29.898Z,99621.75
2022-12-08T02:00:03.628Z,99616.56
2022-12-08T02:02:45.265Z,99612.19
2022-12-08T02:05:14.572Z,99606.19
2022-12-08T02:07:45.107Z,99607.97
2022-12-08T02:10:22.500Z,99602.78
2022-12-08T02:12:53.506Z,99601.97
2022-12-08T02:15:26.363Z,99589.03
2022-12-08T02:18:04.745Z,99602.88
2022-12-08T02:20:50.106Z,99593.38
2022-12-08T02:23:29.505Z,99586.50
2022-12-08T02:26:24.411Z,99585.63
2022-12-08T02:29:16.540Z,99583.09
2022-12-08T02:31:56.700Z,99570.06
2022-12-08T02:34:32.734Z,99562.38
2022-12-08T02:37:09.335Z,99566.66
2022-12-08T02:39:52.099Z,99569.25
2022-12-08T02:42:28.858Z,99562.19
2022-12-08T02:45:03.431Z,99558.84
2022-12-08T02:47:34.666Z,99563.13
2022-12-08T02:50:05.877Z,99556.25
2022-12-08T02:53:01.727Z,99557.97
2022-12-08T02:55:38.831Z,99557.97
2022-12-08T02:58:37.098Z,99548.47
2022-12-08T03:01:27.276Z,99542.41
2022-12-08T03:04:04.111Z,99532.06
2022-12-08T03:06:41.650Z,99525.09
2022-12-08T03:09:16.431Z,99532.84
2022-12-08T03:11:52.533Z,99535.44
2022-12-08T03:14:23.461Z,99535.31
2022-12-08T03:16:56.571Z,99528.50
2022-12-08T03:19:28.340Z,99533.69
2022-12-08T03:22:03.234Z,99518.16
2022-12-08T03:24:33.815Z,99514.72
2022-12-08T03:27:04.914Z,99512.13
2022-12-08T03:29:34.011Z,99517.31
2022-12-08T03:32:10.139Z,99507.91
2022-12-08T03:34:43.613Z,99502.66
2022-12-08T03:37:14.098Z,99512.22
2022-12-08T03:39:42.911Z,99507.91
2022-12-08T03:42:11.312Z,99504.50
2022-12-08T03:44:39.695Z,99499.31
2022-12-08T03:47:08.054Z,99497.56
2022-12-08T03:49:36.367Z,99486.31
2022-12-08T03:52:04.920Z,99490.63
2022-12-08T03:54:34.689Z,99482.03
2022-12-08T03:57:03.130Z,99474.19
2022-12-08T03:59:31.589Z,99477.69
2022-12-08T04:02:00.214Z,99479.44
2022-12-08T04:04:28.715Z,99467.31
2022-12-08T04:06:57.484Z,99464.72
2022-12-08T04:09:26.064Z,99461.19
2022-12-08T04:11:55.995Z,99459.41
2022-12-08T04:14:24.311Z,99459.41
2022-12-08T04:16:52.609Z,99463.78
2022-12-08T04:19:20.986Z,99459.41
2022-12-08T04:21:49.330Z,99456.81
2022-12-08T04:24:17.933Z,99453.41
2022-12-08T04:26:46.416Z,99449.88
2022-12-08T04:29:19.156Z,99449.03
2022-12-08T04:31:49.937Z,99443.84
2022-12-08T04:34:18.399Z,99442.09
2022-12-08T04:36:46.847Z,99444.69
2022-12-08T04:39:15.259Z,99441.16
2022-12-08T04:41:43.817Z,99450.69
2022-12-08T04:44:12.182Z,99442.84
2022-12-08T04:46:43.839Z,99441.97
2022-12-08T04:49:12.307Z,99438.44
2022-12-08T04:51:40.696Z,99432.38
2022-12-08T04:54:09.209Z,99440.94
2022-12-08T04:56:37.980Z,99440.81
2022-12-08T04:59:06.304Z,99434.91
2022-12-08T05:01:34.913Z,99432.25
2022-12-08T05:04:04.972Z,99427.09
2022-12-08T05:06:33.309Z,99426.19
2022-12-08T05:09:01.666Z,99426.19
2022-12-08T05:11:30.048Z,99425.38
2022-12-08T05:13:58.360Z,99426.19
2022-12-08T05:16:29.518Z,99424.53
2022-12-08T05:18:58.275Z,99426.25
2022-12-08T05:21:28.623Z,99423.59
2022-12-08T05:23:56.994Z,99425.38
2022-12-08T05:26:25.877Z,99422.78
2022-12-08T05:28:54.259Z,99426.19
2022-12-08T05:31:22.753Z,99426.19
2022-12-08T05:33:54.134Z,99427.09
2022-12-08T05:36:22.583Z,99424.41
2022-12-08T05:38:52.402Z,99419.25
2022-12-08T05:41:21.959Z,99418.41
2022-12-08T05:43:50.689Z,99414.06
2022-12-08T05:46:19.304Z,99415.81
2022-12-08T05:48:47.792Z,99406.38
2022-12-08T05:51:20.231Z,99414.13
2022-12-08T05:53:49.667Z,99409.00
2022-12-08T05:56:20.277Z,99411.56
2022-12-08T05:58:49.043Z,99398.53
2022-12-08T06:01:23.213Z,99402.81
2022-12-08T06:03:52.299Z,99401.19
2022-12-08T06:06:24.008Z,99392.50
2022-12-08T06:08:54.804Z,99395.09
2022-12-08T06:11:27.605Z,99407.25
2022-12-08T06:13:57.033Z,99396.91
2022-12-08T06:16:26.117Z,99394.22
2022-12-08T06:18:55.075Z,99395.94
2022-12-08T06:21:23.544Z,99391.59
2022-12-08T06:23:53.450Z,99397.66
2022-12-08T06:26:26.229Z,99382.13
2022-12-08T06:28:54.915Z,99389.81
2022-12-08T06:31:25.925Z,99388.06
2022-12-08T06:33:57.901Z,99387.16
2022-12-08T06:36:28.797Z,99393.16
2022-12-08T06:38:58.205Z,99388.84
2022-12-08T06:41:56.824Z,99387.91
2022-12-08T06:44:34.705Z,99387.91
2022-12-08T06:47:03.124Z,99391.31
2022-12-08T06:49:31.672Z,99394.78
2022-12-08T06:52:02.576Z,99389.56
2022-12-08T06:54:31.198Z,99394.75
2022-12-08T06:57:00.939Z,99394.75
2022-12-08T06:59:32.418Z,99389.56
2022-12-08T07:02:01.309Z,99402.44
2022-12-08T07:04:30.998Z,99393.72
2022-12-08T07:06:59.386Z,99406.63
2022-12-08T07:09:28.057Z,99401.44
2022-12-08T07:11:57.421Z,99399.66
2022-12-08T07:14:27.397Z,99403.06
2022-12-08T07:16:58.380Z,99409.88
2022-12-08T07:19:26.835Z,99410.72
2022-12-08T07:21:55.189Z,99414.94
2022-12-08T07:24:23.662Z,99416.56
2022-12-08T07:26:52.070Z,99421.75
2022-12-08T07:29:26.024Z,99419.09
2022-12-08T07:31:56.202Z,99414.66
2022-12-08T07:34:24.681Z,99425.03
2022-12-08T07:36:53.039Z,99418.97
2022-12-08T07:39:21.408Z,99417.13
2022-12-08T07:41:49.716Z,99411.97
2022-12-08T07:44:18.141Z,99408.41
2022-12-08T07:46:46.957Z,99414.41
2022-12-08T07:49:16.694Z,99413.53
2022-12-08T07:51:45.021Z,99416.94
2022-12-08T07:54:14.156Z,99413.38
2022-12-08T07:56:42.476Z,99417.63
2022-12-08T07:59:10.956Z,99418.44
2022-12-08T08:01:39.644Z,99414.00
2022-12-08T08:04:08.015Z,99411.44
2022-12-08T08:06:38.025Z,99425.19
2022-12-08T08:09:06.608Z,99415.66
2022-12-08T08:11:34.885Z,99419.06
2022-12-08T08:14:03.370Z,99423.28
2022-12-08T08:16:36.684Z,99419.69
2022-12-08T08:19:06.887Z,99416.94
2022-12-08T08:21:50.502Z,99422.06
2022-12-08T08:24:21.541Z,99419.41
2022-12-08T08:26:49.781Z,99421.94
2022-12-08T08:29:18.151Z,99420.16
2022-12-08T08:31:46.690Z,99426.16
2022-12-08T08:34:15.254Z,99425.34
2022-12-08T08:36:43.745Z,99433.91
2022-12-08T08:39:12.531Z,99430.38
2022-12-08T08:41:43.592Z,99428.59
2022-12-08T08:44:14.136Z,99432.88
2022-12-08T08:46:42.536Z,99427.59
2022-12-08T08:49:10.995Z,99423.25
2022-12-08T08:51:39.566Z,99428.41
2022-12-08T08:54:07.975Z,99424.03
2022-12-08T08:56:36.437Z,99430.09
2022-12-08T08:59:06.077Z,99423.16
2022-12-08T09:01:35.371Z,99430.91
2022-12-08T09:04:03.803Z,99424.78
2022-12-08T09:06:32.538Z,99420.44
2022-12-08T09:09:00.959Z,99422.16
2022-12-08T09:11:29.298Z,99417.88
2022-12-08T09:13:57.707Z,99421.25
2022-12-08T09:16:27.856Z,99429.00
2022-12-08T09:18:56.784Z,99429.84
2022-12-08T09:21:27.079Z,99413.44
2022-12-08T09:23:57.130Z,99429.00
2022-12-08T09:26:26.548Z,99428.94
2022-12-08T09:28:56.759Z,99414.31
2022-12-08T09:31:25.507Z,99420.38
2022-12-08T09:33:55.341Z,99420.50
2022-12-08T09:36:23.952Z,99415.41
2022-12-08T09:38:53.734Z,99415.41
2022-12-08T09:41:37.569Z,99412.06
2022-12-08T09:44:33.816Z,99415.53
2022-12-08T09:47:07.443Z,99414.72
2022-12-08T09:49:40.868Z,99412.94
2022-12-08T09:52:23.795Z,99413.91
2022-12-08T09:54:52.099Z,99408.81
2022-12-08T09:57:25.423Z,99425.22
2022-12-08T09:59:59.113Z,99407.19
2022-12-08T10:02:30.264Z,99408.06
2022-12-08T10:05:00.827Z,99406.28
2022-12-08T10:07:39.685Z,99398.59
2022-12-08T10:10:21.656Z,99410.69
2022-12-08T10:12:55.275Z,99405.59
2022-12-08T10:15:48.464Z,99405.59
2022-12-08T10:18:19.085Z,99401.25
2022-12-08T10:20:50.985Z,99399.47
2022-12-08T10:23:29.629Z,99392.66
2022-12-08T10:26:03.061Z,99393.63
2022-12-08T10:28:32.997Z,99395.38
2022-12-08T10:31:01.900Z,99390.19
2022-12-08T10:33:34.287Z,99388.50
2022-12-08T10:36:04.942Z,99388.50
2022-12-08T10:38:35.243Z,99385.84
2022-12-08T10:41:07.649Z,99387.56
2022-12-08T10:43:39.366Z,99379.81
2022-12-08T10:46:13.630Z,99377.22
2022-12-08T10:48:50.491Z,99376.38
2022-12-08T10:51:29.920Z,99370.34
2022-12-08T10:53:58.493Z,99374.69
2022-12-08T10:56:29.433Z,99373.88
2022-12-08T10:59:15.126Z,99375.63
2022-12-08T11:01:47.945Z,99382.56
2022-12-08T11:04:19.671Z,99373.06
2022-12-08T11:06:51.142Z,99374.00
2022-12-08T11:09:37.278Z,99370.59
2022-12-08T11:12:10.792Z,99368.06
2022-12-08T11:14:50.324Z,99362.16
2022-12-08T11:17:25.458Z,99358.69
2022-12-08T11:19:59.158Z,99363.09
2022-12-08T11:22:33.244Z,99354.50
2022-12-08T11:25:04.532Z,99350.22
2022-12-08T11:27:34.725Z,99351.16
2022-12-08T11:30:09.855Z,99346.06
2022-12-08T11:32:44.651Z,99344.47
2022-12-08T11:35:21.627Z,99341.97
2022-12-08T11:37:51.351Z,99343.72
2022-12-08T11:40:24.230Z,99335.16
2022-12-08T11:43:01.194Z,99332.59
2022-12-08T11:45:34.749Z,99336.06
2022-12-08T11:48:11.623Z,99337.09
2022-12-08T11:50:46.523Z,99331.97
2022-12-08T11:53:23.521Z,99334.63
2022-12-08T11:55:56.086Z,99332.13
2022-12-08T11:58:32.640Z,99321.78
2022-12-08T12:01:02.077Z,99330.47
2022-12-08T12:03:36.694Z,99329.66
2022-12-08T12:09:20.472Z,99322.00
2022-12-08T12:12:15.827Z,99318.63
2022-12-08T12:15:22.382Z,99321.19
2022-12-08T12:17:54.366Z,99323.03
2022-12-08T12:20:27.828Z,99320.38
2022-12-08T12:23:03.823Z,99315.19
2022-12-08T12:25:35.651Z,99308.25
2022-12-08T12:28:07.719Z,99328.06
2022-12-08T12:30:53.667Z,99313.44
2022-12-08T12:33:24.331Z,99303.06
2022-12-08T12:35:56.909Z,99305.66
2022-12-08T12:38:48.609Z,99302.13
2022-12-08T12:41:25.677Z,99303.84
2022-12-08T12:44:24.051Z,99303.84
2022-12-08T12:46:58.195Z,99302.16
2022-12-08T12:50:05.691Z,99300.53
2022-12-08T12:52:48.505Z,99299.78
2022-12-08T12:55:45.325Z,99299.88
2022-12-08T12:58:37.364Z,99297.38
2022-12-08T13:01:42.809Z,99291.44
2022-12-08T13:04:12.441Z,99301.03
2022-12-08T13:06:44.522Z,99295.84
2022-12-08T13:09:35.986Z,99307.91
2022-12-08T13:12:11.547Z,99296.59
2022-12-08T13:14:47.861Z,99294.84
2022-12-08T13:17:23.965Z,99294.84
2022-12-08T13:19:56.996Z,99291.44
2022-12-08T13:23:04.778Z,99288.84
2022-12-08T13:25:51.242Z,99303.56
2022-12-08T13:28:25.770Z,99296.59
2022-12-08T13:30:57.407Z,99291.44
2022-12-08T13:33:30.658Z,99296.59
2022-12-08T13:36:15.852Z,99298.31
2022-12-08T13:38:47.322Z,99294.03
2022-12-08T13:41:23.321Z,99289.69
2022-12-08T13:44:50.334Z,99284.50
2022-12-08T13:47:17.254Z,99283.66
2022-12-08T13:58:33.431Z,99277.78
2022-12-08T14:01:06.812Z,99282.91
2022-12-08T14:04:11.700Z,99280.28
2022-12-08T14:06:38.435Z,99272.50
2022-12-08T14:09:12.451Z,99279.44
2022-12-08T14:11:43.467Z,99274.25
2022-12-08T14:14:32.535Z,99269.91
2022-12-08T14:17:08.320Z,99273.38
2022-12-08T14:19:38.304Z,99274.25
2022-12-08T14:22:12.920Z,99271.66
2022-12-08T14:24:45.707Z,99269.97
2022-12-08T14:27:17.420Z,99280.31
2022-12-08T14:29:47.985Z,99282.09
2022-12-08T14:32:31.397Z,99282.91
2022-12-08T14:35:13.357Z,99286.38
2022-12-08T14:37:44.825Z,99286.44
2022-12-08T14:40:23.707Z,99286.50
2022-12-08T14:42:54.576Z,99282.22
2022-12-08T14:45:23.130Z,99277.06
2022-12-08T14:47:53.426Z,99290.00
2022-12-08T14:50:45.257Z,99279.72
2022-12-08T14:53:17.270Z,99276.25
2022-12-08T14:55:48.920Z,99276.25
2022-12-08T14:58:24.293Z,99276.25
2022-12-08T15:00:56.745Z,99274.47
2022-12-08T15:03:28.203Z,99276.25
2022-12-08T15:06:01.331Z,99273.69
2022-12-08T15:08:30.033Z,99273.72
2022-12-08T15:11:19.943Z,99269.44
2022-12-08T15:13:50.218Z,99276.38
2022-12-08T15:16:29.662Z,99272.94
2022-12-08T15:19:05.481Z,99276.50
2022-12-08T15:21:39.056Z,99283.44
2022-12-08T15:24:09.395Z,99280.03
2022-12-08T15:26:42.334Z,99283.50
2022-12-08T15:29:12.702Z,99280.09
2022-12-08T15:31:41.448Z,99282.69
2022-12-08T15:34:11.804Z,99282.63
2022-12-08T15:36:42.914Z,99280.03
2022-12-08T15:39:25.096Z,99276.50
2022-12-08T15:41:53.453Z,99281.66
2022-12-08T15:44:22.904Z,99277.31
2022-12-08T15:46:51.544Z,99278.97
2022-12-08T15:49:22.169Z,99280.59
2022-12-08T15:51:59.439Z,99291.81
2022-12-08T15:54:36.456Z,99283.97
2022-12-08T15:57:19.621Z,99285.59
2022-12-08T15:59:50.736Z,99291.69
2022-12-08T16:02:22.764Z,99285.56
2022-12-08T16:07:41.653Z,99280.31
2022-12-08T16:10:16.059Z,99274.25
2022-12-08T16:15:59.811Z,99280.28
2022-12-08T16:18:32.467Z,99281.94
2022-12-08T16:23:50.501Z,99277.53
2022-12-08T16:27:00.974Z,99280.09
2022-12-08T16:29:21.044Z,99277.50
2022-12-08T16:31:49.654Z,99280.09
2022-12-08T16:34:18.330Z,99279.19
2022-12-08T16:36:46.790Z,99277.50
2022-12-08T16:39:16.663Z,99280.00
2022-12-08T16:42:02.699Z,99273.88
2022-12-08T16:44:31.164Z,99279.06
2022-12-08T16:46:59.603Z,99273.78
2022-12-08T16:49:27.943Z,99273.78
2022-12-08T16:51:56.349Z,99272.03
2022-12-08T16:54:26.150Z,99272.03
2022-12-08T16:56:54.655Z,99275.41
2022-12-08T16:59:25.292Z,99281.47
2022-12-08T17:01:53.701Z,99280.59
2022-12-08T17:04:31.395Z,99282.38
2022-12-08T17:07:00.919Z,99282.31
2022-12-08T17:09:32.210Z,99296.13
2022-12-08T17:12:03.999Z,99282.22
2022-12-08T17:14:35.871Z,99277.97
2022-12-08T17:17:04.816Z,99289.19
2022-12-08T17:19:36.557Z,99282.22
2022-12-08T17:22:05.149Z,99278.00
2022-12-08T17:24:35.279Z,99280.59
2022-12-08T17:27:06.341Z,99280.59
2022-12-08T17:29:35.411Z,99278.94
2022-12-08T17:32:04.111Z,99282.38
2022-12-08T17:34:33.429Z,99289.38
2022-12-08T17:37:04.474Z,99287.56
2022-12-08T17:39:34.258Z,99297.06
2022-12-08T17:42:02.705Z,99289.31
2022-12-08T17:44:31.895Z,99297.06
2022-12-08T17:47:00.613Z,99276.34
2022-12-08T17:49:30.803Z,99289.31
2022-12-08T17:52:00.773Z,99278.94
2022-12-08T17:54:30.369Z,99275.53
2022-12-08T17:57:01.921Z,99277.19
2022-12-08T17:59:31.483Z,99278.94
2022-12-08T18:02:00.236Z,99269.47
2022-12-08T18:04:29.640Z,99278.94
2022-12-08T18:06:59.324Z,99280.69
2022-12-08T18:09:27.832Z,99275.47
2022-12-08T18:11:56.287Z,99276.34
2022-12-08T18:14:26.560Z,99282.38
2022-12-08T18:16:55.108Z,99272.13
2022-12-08T18:19:23.749Z,99280.69
2022-12-08T18:21:52.166Z,99279.06
2022-12-08T18:24:23.355Z,99276.47
2022-12-08T18:26:52.925Z,99277.31
2022-12-08T18:29:22.334Z,99279.91
2022-12-08T18:31:52.917Z,99279.91
2022-12-08T18:34:21.511Z,99272.13
2022-12-08T18:36:50.120Z,99269.59
2022-12-08T18:39:24.502Z,99294.59
2022-12-08T18:41:53.368Z,99274.84
2022-12-08T18:44:21.850Z,99276.53
2022-12-08T18:46:50.413Z,99286.03
2022-12-08T18:49:20.939Z,99285.94
2022-12-08T18:51:49.534Z,99286.81
2022-12-08T18:54:17.965Z,99278.19
2022-12-08T18:56:46.380Z,99279.81
2022-12-08T18:59:14.864Z,99280.69
2022-12-08T19:01:43.749Z,99277.25
2022-12-08T19:04:28.001Z,99273.78
2022-12-08T19:06:58.921Z,99276.34
2022-12-08T19:09:29.129Z,99278.94
2022-12-08T19:11:59.925Z,99274.66
2022-12-08T19:14:32.125Z,99278.94
2022-12-08T19:17:01.176Z,99285.00
2022-12-08T19:19:29.881Z,99287.56
2022-12-08T19:22:00.116Z,99278.94
2022-12-08T19:24:28.966Z,99278.88
2022-12-08T19:26:57.704Z,99283.25
2022-12-08T19:29:26.461Z,99282.38
2022-12-08T19:31:55.115Z,99278.06
2022-12-08T19:34:26.694Z,99284.06
2022-12-08T19:36:55.089Z,99286.63
2022-12-08T19:39:54.675Z,99286.63
2022-12-08T19:42:40.998Z,99289.31
2022-12-08T19:45:13.542Z,99278.84
2022-12-08T19:47:42.693Z,99289.19
2022-12-08T19:50:31.009Z,99291.78
2022-12-08T19:53:01.908Z,99287.41
2022-12-08T19:55:32.227Z,99285.72
2022-12-08T19:58:01.918Z,99286.53
2022-12-08T20:00:31.527Z,99285.66
2022-12-08T20:03:03.856Z,99290.81
2022-12-08T20:05:35.540Z,99292.56
2022-12-08T20:08:04.102Z,99286.59
2022-12-08T20:10:36.961Z,99288.25
2022-12-08T20:13:24.727Z,99288.16
2022-12-08T20:15:56.483Z,99285.53
2022-12-08T20:18:28.942Z,99290.56
2022-12-08T20:20:57.836Z,99295.69
2022-12-08T20:23:26.458Z,99291.28
2022-12-08T20:26:00.146Z,99292.03
2022-12-08T20:28:28.530Z,99291.97
2022-12-08T20:30:57.176Z,99294.44
2022-12-08T20:33:26.398Z,99298.66
2022-12-08T20:36:02.039Z,99301.19
2022-12-08T20:38:33.383Z,99303.72
2022-12-08T20:41:04.477Z,99303.63
2022-12-08T20:43:33.058Z,99306.19
2022-12-08T20:46:01.462Z,99309.56
2022-12-08T20:48:29.999Z,99303.53
2022-12-08T20:50:58.612Z,99303.44
2022-12-08T20:53:27.453Z,99303.44
2022-12-08T20:55:58.316Z,99309.53
2022-12-08T20:58:28.162Z,99305.22
2022-12-08T21:00:56.670Z,99308.63
2022-12-08T21:03:26.490Z,99303.44
2022-12-08T21:05:55.234Z,99310.34
2022-12-08T21:08:25.924Z,99308.63
2022-12-08T21:10:55.414Z,99312.03
2022-12-08T21:13:24.191Z,99308.63
2022-12-08T21:15:57.710Z,99314.63
2022-12-08T21:18:26.751Z,99308.63
2022-12-08T21:21:03.253Z,99345.75
2022-12-08T21:23:31.692Z,99304.34
2022-12-08T21:26:00.615Z,99305.22
2022-12-08T21:28:32.754Z,99310.41
2022-12-08T21:31:14.967Z,99305.22
2022-12-08T21:33:47.429Z,99302.69
2022-12-08T21:36:41.463Z,99308.78
2022-12-08T21:39:13.714Z,99319.13
2022-12-08T21:41:59.869Z,99302.69
2022-12-08T21:44:42.364Z,99308.78
2022-12-08T21:47:14.318Z,99313.13
2022-12-08T21:49:48.069Z,99308.78
2022-12-08T21:52:23.969Z,99301.81
2022-12-08T21:55:13.029Z,99322.66
2022-12-08T21:57:49.374Z,99304.56
2022-12-08T22:00:26.590Z,99300.19
2022-12-08T22:02:58.036Z,99301.06
2022-12-08T22:05:29.888Z,99302.84
2022-12-08T22:07:58.509Z,99305.34
2022-12-08T22:10:27.046Z,99307.13
2022-12-08T22:12:55.587Z,99303.72
2022-12-08T22:15:24.291Z,99305.44
2022-12-08T22:17:52.955Z,99301.97
2022-12-08T22:20:23.042Z,99308.88
2022-12-08T22:22:51.955Z,99307.19
2022-12-08T22:25:20.417Z,99328.75
2022-12-08T22:27:48.991Z,99311.41
2022-12-08T22:30:17.642Z,99311.34
2022-12-08T22:32:46.691Z,99311.28
2022-12-08T22:35:15.108Z,99307.75
2022-12-08T22:37:44.761Z,99305.13
2022-12-08T22:40:13.348Z,99317.09
2022-12-08T22:42:41.774Z,99308.38
2022-12-08T22:45:10.971Z,99312.59
2022-12-08T22:47:39.482Z,99299.75
2022-12-08T22:50:08.957Z,99304.84
2022-12-08T22:52:37.669Z,99298.78
2022-12-08T22:55:08.815Z,99302.13
2022-12-08T22:57:37.119Z,99297.84
2022-12-08T23:00:07.850Z,99307.38
2022-12-08T23:02:39.391Z,99296.13
2022-12-08T23:05:08.736Z,99300.41
2022-12-08T23:07:37.467Z,99296.13
2022-12-08T23:10:12.449Z,99312.56
2022-12-08T23:12:40.869Z,99290.94
2022-12-08T23:15:10.057Z,99292.75
2022-12-08T23:17:38.551Z,99297.91
2022-12-08T23:20:08.580Z,99302.22
2022-12-08T23:22:37.508Z,99306.47
2022-12-08T23:25:09.523Z,99304.72
2022-12-08T23:27:39.072Z,99303.84
2022-12-08T23:30:09.067Z,99304.72
2022-12-08T23:32:38.468Z,99296.00
2022-12-08T23:35:08.506Z,99290.84
2022-12-08T23:37:37.453Z,99290.84
2022-12-08T23:40:08.939Z,99290.84
2022-12-08T23:42:37.691Z,99294.25
2022-12-08T23:45:08.368Z,99287.28
2022-12-08T23:47:37.027Z,99289.88
2022-12-08T23:50:07.630Z,99302.81
2022-12-08T23:52:38.406Z,99294.19
2022-12-08T23:55:11.290Z,99295.06
2022-12-08T23:57:40.062Z,99284.72
